createdAt,value
2023-02-06T03:12:32.007Z,338.00
2023-02-06T04:42:30.212Z,341.00
2023-02-06T04:43:30.181Z,341.00
2023-02-06T04:44:30.177Z,339.00
2023-02-06T04:46:30.161Z,341.00
2023-02-06T04:47:30.125Z,340.00
2023-02-06T04:48:30.097Z,341.00
2023-02-06T04:49:30.098Z,340.00
2023-02-06T04:50:30.084Z,338.00
2023-02-06T04:51:30.058Z,340.00
2023-02-06T04:52:30.053Z,336.00
2023-02-06T04:53:30.018Z,336.00
2023-02-06T04:54:32.439Z,336.00
2023-02-06T04:55:30.229Z,333.00
2023-02-06T04:56:30.192Z,333.00
2023-02-06T04:57:30.200Z,333.00
2023-02-06T04:58:30.168Z,334.00
2023-02-06T04:59:30.132Z,333.00
2023-02-06T05:00:30.120Z,333.00
2023-02-06T05:01:30.121Z,329.00
2023-02-06T05:02:30.103Z,331.00
2023-02-06T05:03:30.070Z,333.00
2023-02-06T05:04:30.037Z,331.00
2023-02-06T05:05:30.031Z,332.00
2023-02-06T05:06:29.985Z,332.00
2023-02-06T05:07:29.979Z,334.00
2023-02-06T05:08:29.941Z,336.00
2023-02-06T05:09:29.956Z,335.00
2023-02-06T05:10:29.908Z,335.00
2023-02-06T05:11:29.887Z,336.00
2023-02-06T05:12:29.866Z,336.00
2023-02-06T05:13:29.839Z,334.00
2023-02-06T05:14:29.814Z,336.00
2023-02-06T05:15:29.795Z,335.00
2023-02-06T05:16:29.782Z,336.00
2023-02-06T05:17:29.820Z,336.00
2023-02-06T05:18:29.729Z,334.00
2023-02-06T05:19:29.711Z,335.00
2023-02-06T05:20:29.686Z,334.00
2023-02-06T05:21:29.662Z,334.00
2023-02-06T05:22:29.646Z,335.00
2023-02-06T05:23:29.624Z,334.00
2023-02-06T05:24:29.594Z,334.00
2023-02-06T05:25:29.591Z,337.00
2023-02-06T05:26:29.554Z,337.00
2023-02-06T05:27:29.537Z,336.00
2023-02-06T05:28:29.524Z,335.00
2023-02-06T05:29:29.490Z,334.00
2023-02-06T05:30:29.457Z,330.00
2023-02-06T05:31:29.544Z,330.00
2023-02-06T05:32:29.419Z,332.00
2023-02-06T05:33:29.395Z,334.00
2023-02-06T05:34:29.390Z,333.00
2023-02-06T05:35:29.373Z,335.00
2023-02-06T05:36:29.369Z,336.00
2023-02-06T05:37:29.337Z,337.00
2023-02-06T05:38:29.330Z,338.00
2023-02-06T05:39:29.304Z,336.00
2023-02-06T05:40:29.291Z,335.00
2023-02-06T05:41:29.272Z,335.00
2023-02-06T05:42:29.244Z,335.00
2023-02-06T05:43:29.236Z,336.00
2023-02-06T05:44:29.207Z,335.00
2023-02-06T05:45:29.180Z,335.00
2023-02-06T05:46:29.176Z,333.00
2023-02-06T05:47:29.134Z,333.00
2023-02-06T05:48:29.107Z,334.00
2023-02-06T05:49:29.106Z,335.00
2023-02-06T05:50:29.078Z,336.00
2023-02-06T05:51:29.062Z,336.00
2023-02-06T05:52:29.049Z,338.00
2023-02-06T05:53:29.034Z,340.00
2023-02-06T05:54:29.001Z,336.00
2023-02-06T05:55:28.976Z,339.00
2023-02-06T05:56:28.955Z,342.00
2023-02-06T05:57:28.937Z,343.00
2023-02-06T05:58:28.930Z,344.00
2023-02-06T05:59:28.893Z,344.00
2023-02-06T06:00:28.864Z,342.00
2023-02-06T06:01:28.852Z,342.00
2023-02-06T06:02:28.835Z,342.00
2023-02-06T06:03:28.816Z,340.00
2023-02-06T06:04:28.851Z,339.00
2023-02-06T06:05:28.763Z,340.00
2023-02-06T06:06:28.752Z,339.00
2023-02-06T06:07:28.737Z,337.00
2023-02-06T06:08:28.709Z,338.00
2023-02-06T06:09:28.696Z,339.00
2023-02-06T06:10:28.682Z,337.00
2023-02-06T06:11:28.652Z,336.00
2023-02-06T06:12:28.622Z,335.00
2023-02-06T06:13:28.604Z,335.00
2023-02-06T06:14:28.560Z,336.00
2023-02-06T06:15:28.540Z,334.00
2023-02-06T06:16:28.501Z,333.00
2023-02-06T06:17:28.477Z,334.00
2023-02-06T06:18:28.443Z,333.00
2023-02-06T06:19:28.449Z,334.00
2023-02-06T06:20:28.406Z,335.00
2023-02-06T06:21:28.383Z,336.00
2023-02-06T06:22:28.341Z,335.00
2023-02-06T06:23:28.327Z,336.00
2023-02-06T06:24:28.280Z,336.00
2023-02-06T06:25:28.320Z,335.00
2023-02-06T06:26:28.258Z,337.00
2023-02-06T06:27:28.220Z,336.00
2023-02-06T06:28:28.190Z,336.00
2023-02-06T06:29:28.163Z,337.00
2023-02-06T06:30:28.141Z,336.00
2023-02-06T06:31:28.167Z,334.00
2023-02-06T06:32:28.092Z,336.00
2023-02-06T06:33:28.097Z,335.00
2023-02-06T06:34:28.059Z,337.00
2023-02-06T06:35:28.031Z,337.00
2023-02-06T06:36:28.028Z,347.00
2023-02-06T06:37:27.990Z,415.00
2023-02-06T06:38:27.970Z,432.00
2023-02-06T06:39:27.947Z,455.00
2023-02-06T06:40:27.926Z,503.00
2023-02-06T06:41:27.907Z,532.00
2023-02-06T06:42:27.880Z,588.00
2023-02-06T06:43:27.857Z,624.00
2023-02-06T06:44:27.830Z,667.00
2023-02-06T11:28:20.604Z,1473.00
2023-02-06T11:29:20.354Z,1505.00
2023-02-06T11:30:20.326Z,1521.00
2023-02-06T11:31:20.323Z,1547.00
2023-02-06T11:32:20.259Z,1579.00
2023-02-06T11:33:20.238Z,1593.00
2023-02-06T11:34:20.259Z,1622.00
2023-02-06T11:35:20.173Z,1640.00
2023-02-06T11:36:20.157Z,1717.00
2023-02-06T11:37:20.093Z,1621.00
2023-02-06T11:38:20.076Z,1628.00
2023-02-06T11:39:20.913Z,1624.00
2023-02-06T11:40:20.001Z,1528.00
2023-02-06T11:41:19.967Z,1535.00
2023-02-06T11:42:19.935Z,1553.00
2023-02-06T11:43:19.901Z,1559.00
2023-02-06T11:44:19.879Z,1571.00
2023-02-06T11:45:19.860Z,1659.00
2023-02-06T11:46:19.883Z,1699.00
2023-02-06T11:47:19.771Z,1808.00
2023-02-06T11:48:19.719Z,1883.00
2023-02-06T11:49:19.689Z,2054.00
2023-02-06T11:50:19.657Z,1919.00
2023-02-06T11:51:19.615Z,1944.00
2023-02-06T11:52:19.606Z,1978.00
2023-02-06T11:53:19.554Z,1972.00
2023-02-06T11:54:19.564Z,1965.00
2023-02-06T11:55:19.489Z,2021.00
2023-02-06T11:56:19.654Z,2039.00
2023-02-06T11:57:19.443Z,2043.00
2023-02-06T11:58:19.381Z,2047.00
2023-02-06T11:59:19.349Z,2066.00
2023-02-06T12:00:19.336Z,2105.00
2023-02-06T12:01:19.325Z,2116.00
2023-02-06T12:02:19.277Z,2131.00
2023-02-06T12:03:19.247Z,2146.00
2023-02-06T12:04:19.322Z,2204.00
2023-02-06T12:05:19.153Z,2211.00
2023-02-06T12:06:19.147Z,2193.00
2023-02-06T12:07:19.172Z,2085.00
2023-02-06T12:08:19.026Z,1986.00
2023-02-06T12:09:19.051Z,1963.00
2023-02-06T12:10:18.959Z,1962.00
2023-02-06T12:11:18.907Z,1979.00
2023-02-06T12:12:18.889Z,2029.00
2023-02-06T12:13:18.827Z,2075.00
2023-02-06T12:14:19.350Z,2077.00
2023-02-06T12:15:43.575Z,2086.00
2023-02-06T12:16:19.743Z,2117.00
2023-02-06T12:17:18.669Z,2148.00
2023-02-06T12:18:18.635Z,2150.00
2023-02-06T12:19:18.595Z,2169.00
2023-02-06T12:20:18.563Z,2193.00
2023-02-06T12:21:18.535Z,2223.00
2023-02-06T12:22:18.561Z,2251.00
2023-02-06T12:23:18.429Z,2312.00
2023-02-06T12:24:18.392Z,2330.00
2023-02-06T12:25:18.359Z,2339.00
2023-02-06T12:26:18.328Z,2360.00
2023-02-06T12:27:18.298Z,2402.00
2023-02-06T12:28:18.309Z,2476.00
2023-02-06T12:29:18.202Z,2434.00
2023-02-06T12:30:18.171Z,2220.00
2023-02-06T12:31:18.348Z,2270.00
2023-02-06T12:32:18.106Z,2068.00
2023-02-06T12:33:18.114Z,1965.00
2023-02-06T12:34:18.025Z,2029.00
2023-02-06T12:35:17.985Z,1767.00
2023-02-06T12:36:17.972Z,1630.00
2023-02-06T12:37:17.916Z,1472.00
2023-02-06T12:38:17.891Z,1463.00
2023-02-06T12:39:17.841Z,1446.00
2023-02-06T12:40:17.821Z,1437.00
2023-02-06T15:24:12.079Z,1119.00
2023-02-06T15:31:11.854Z,1112.00
2023-02-06T15:33:11.752Z,1107.00
2023-02-06T15:34:11.693Z,1104.00
2023-02-06T15:35:11.665Z,1103.00
2023-02-06T15:36:11.629Z,1104.00
2023-02-06T15:37:11.596Z,1103.00
2023-02-06T15:38:11.560Z,1102.00
2023-02-06T15:39:11.529Z,1101.00
2023-02-06T15:40:11.503Z,1098.00
2023-02-06T15:41:11.486Z,1095.00
2023-02-06T15:42:11.466Z,1092.00
2023-02-06T15:43:11.414Z,1088.00
2023-02-06T15:44:11.387Z,1090.00
2023-02-06T15:45:11.359Z,1086.00
2023-02-06T15:46:11.351Z,1083.00
2023-02-06T15:47:11.304Z,1082.00
2023-02-06T15:48:11.263Z,1080.00
2023-02-06T15:49:11.231Z,1077.00
2023-02-06T15:50:11.221Z,1080.00
2023-02-06T15:51:11.178Z,1078.00
2023-02-06T15:52:11.160Z,1075.00
2023-02-06T15:53:11.129Z,1072.00
2023-02-06T15:54:11.098Z,1071.00
2023-02-06T15:55:11.065Z,1071.00
2023-02-06T15:56:11.031Z,1066.00
2023-02-06T15:57:11.020Z,1068.00
2023-02-06T15:58:10.980Z,1064.00
2023-02-06T15:59:10.970Z,1060.00
2023-02-06T16:00:10.925Z,1062.00
2023-02-06T16:01:10.909Z,1059.00
2023-02-06T16:02:10.909Z,1058.00
2023-02-06T16:03:10.840Z,1055.00
2023-02-06T16:04:10.807Z,1055.00
2023-02-06T16:05:10.777Z,1056.00
2023-02-06T16:06:10.747Z,1055.00
2023-02-06T16:07:10.718Z,1055.00
2023-02-06T16:08:10.692Z,1056.00
2023-02-06T16:09:10.649Z,1051.00
2023-02-06T16:10:10.612Z,1052.00
2023-02-06T16:11:10.580Z,1048.00
2023-02-06T16:12:10.546Z,1048.00
2023-02-06T16:13:10.520Z,1045.00
2023-02-06T16:14:10.484Z,1045.00
2023-02-06T16:15:10.450Z,1046.00
2023-02-06T16:16:10.446Z,1047.00
2023-02-06T16:17:10.427Z,1045.00
2023-02-06T16:18:10.376Z,1044.00
2023-02-06T16:19:10.349Z,1045.00
2023-02-06T16:20:10.319Z,1043.00
2023-02-06T16:21:10.306Z,1044.00
2023-02-06T16:22:10.288Z,1040.00
2023-02-06T16:23:10.254Z,1041.00
2023-02-06T16:24:10.226Z,1039.00
2023-02-06T16:25:10.200Z,1034.00
2023-02-06T16:26:10.189Z,1035.00
2023-02-06T16:27:10.160Z,1032.00
2023-02-06T16:28:10.136Z,1034.00
2023-02-06T16:29:10.100Z,1035.00
2023-02-06T16:30:10.060Z,1033.00
2023-02-06T16:31:10.102Z,1027.00
2023-02-06T16:32:09.997Z,1026.00
2023-02-06T16:33:09.964Z,1023.00
2023-02-06T16:34:10.472Z,1023.00
2023-02-06T16:35:09.914Z,1022.00
2023-02-06T16:36:09.895Z,1023.00
2023-02-06T16:37:09.858Z,1022.00
2023-02-06T16:38:09.831Z,1022.00
2023-02-06T16:39:09.802Z,1021.00
2023-02-06T16:40:09.776Z,1018.00
2023-02-06T16:41:09.756Z,1016.00
2023-02-06T16:42:09.734Z,1016.00
2023-02-06T16:43:09.707Z,1013.00
2023-02-06T16:44:09.674Z,1012.00
2023-02-06T16:45:09.648Z,1010.00
2023-02-06T16:46:09.616Z,1012.00
2023-02-06T16:47:09.584Z,1011.00
2023-02-06T16:48:09.573Z,1008.00
2023-02-06T16:49:09.539Z,1003.00
2023-02-06T16:50:10.515Z,1006.00
2023-02-06T16:51:09.482Z,1005.00
2023-02-06T16:52:09.449Z,1002.00
2023-02-06T16:53:09.428Z,1000.00
2023-02-06T16:54:09.383Z,997.00
2023-02-06T16:55:09.355Z,995.00
2023-02-06T16:56:09.333Z,997.00
2023-02-06T16:57:09.303Z,997.00
2023-02-06T16:58:09.276Z,995.00
2023-02-06T16:59:09.246Z,993.00
2023-02-06T17:00:09.212Z,990.00
2023-02-06T17:01:09.240Z,987.00
2023-02-06T17:02:09.166Z,986.00
2023-02-06T17:03:09.142Z,988.00
2023-02-06T17:04:09.105Z,990.00
2023-02-06T17:05:09.191Z,991.00
2023-02-06T17:06:09.051Z,994.00
2023-02-06T17:07:09.038Z,992.00
2023-02-06T17:08:08.992Z,992.00
2023-02-06T17:09:08.968Z,992.00
2023-02-06T17:10:08.936Z,988.00
2023-02-06T17:11:08.913Z,983.00
2023-02-06T17:12:08.901Z,980.00
2023-02-06T17:13:08.862Z,979.00
2023-02-06T17:14:08.827Z,977.00
2023-02-06T17:15:08.801Z,973.00
2023-02-06T17:16:08.841Z,972.00
2023-02-06T17:17:08.739Z,969.00
2023-02-06T17:18:08.711Z,967.00
2023-02-06T17:19:08.694Z,966.00
2023-02-06T17:20:08.661Z,969.00
2023-02-06T17:21:08.653Z,969.00
2023-02-06T17:22:08.612Z,970.00
2023-02-06T17:23:08.606Z,971.00
2023-02-06T17:24:08.571Z,971.00
2023-02-06T17:25:08.538Z,967.00
2023-02-06T17:26:08.513Z,966.00
2023-02-06T17:27:08.496Z,965.00
2023-02-06T17:28:08.500Z,962.00
2023-02-06T17:29:08.458Z,964.00
2023-02-06T17:30:08.429Z,963.00
2023-02-06T17:31:08.494Z,964.00
2023-02-06T17:32:08.380Z,960.00
2023-02-06T17:33:08.382Z,961.00
2023-02-06T17:34:08.336Z,960.00
2023-02-06T17:35:08.318Z,958.00
2023-02-06T17:36:08.286Z,953.00
2023-02-06T17:37:08.262Z,950.00
2023-02-06T17:38:08.253Z,949.00
2023-02-06T17:39:08.236Z,945.00
2023-02-06T17:40:08.244Z,947.00
2023-02-06T17:41:08.188Z,950.00
2023-02-06T17:42:08.166Z,948.00
2023-02-06T17:43:08.167Z,945.00
2023-02-06T17:44:08.132Z,943.00
2023-02-06T17:45:08.115Z,942.00
2023-02-06T17:46:08.141Z,940.00
2023-02-06T17:47:08.067Z,937.00
2023-02-06T17:48:08.034Z,936.00
2023-02-06T17:49:08.016Z,937.00
2023-02-06T17:50:07.979Z,938.00
2023-02-06T17:51:07.946Z,941.00
2023-02-06T17:52:07.919Z,942.00
2023-02-06T17:53:07.900Z,944.00
2023-02-06T17:54:07.877Z,941.00
2023-02-06T17:55:07.854Z,937.00
2023-02-06T17:56:07.842Z,939.00
2023-02-06T19:12:05.858Z,852.00
2023-02-06T19:14:05.812Z,853.00
2023-02-06T19:15:05.786Z,854.00
2023-02-06T19:16:05.816Z,853.00
2023-02-06T19:17:05.740Z,854.00
2023-02-06T19:18:05.723Z,854.00
2023-02-06T19:19:05.688Z,851.00
2023-02-06T19:20:05.673Z,851.00
2023-02-06T19:21:05.654Z,852.00
2023-02-06T19:22:05.632Z,854.00
2023-02-06T19:23:05.593Z,853.00
2023-02-06T19:27:05.513Z,850.00
2023-02-06T19:29:05.461Z,848.00
2023-02-06T19:30:05.444Z,845.00
2023-02-06T19:31:05.447Z,847.00
2023-02-06T19:32:05.394Z,848.00
2023-02-06T19:33:05.354Z,848.00
2023-02-06T19:34:05.342Z,845.00
2023-02-06T19:35:05.319Z,844.00
2023-02-06T19:36:05.298Z,841.00
2023-02-06T19:38:05.268Z,839.00
2023-02-06T19:39:05.223Z,835.00
2023-02-06T19:40:05.217Z,833.00
2023-02-06T19:41:05.159Z,831.00
2023-02-06T19:42:06.704Z,827.00
2023-02-06T19:43:05.130Z,831.00
2023-02-06T19:44:05.100Z,832.00
2023-02-06T19:45:05.065Z,834.00
2023-02-06T19:46:05.094Z,836.00
2023-02-06T19:47:05.028Z,839.00
2023-02-06T19:48:04.997Z,837.00
2023-02-06T19:49:04.968Z,833.00
2023-02-06T19:50:04.949Z,832.00
2023-02-06T19:51:04.945Z,830.00
2023-02-06T19:52:04.904Z,830.00
2023-02-06T19:53:04.872Z,832.00
2023-02-06T19:54:04.845Z,831.00
2023-02-06T19:55:04.825Z,829.00
2023-02-06T19:56:04.805Z,827.00
2023-02-06T19:57:04.779Z,826.00
2023-02-06T19:58:04.782Z,826.00
2023-02-06T19:59:04.778Z,824.00
2023-02-06T20:00:04.743Z,823.00
2023-02-06T20:01:04.714Z,818.00
2023-02-06T20:02:04.669Z,813.00
2023-02-06T20:03:04.679Z,814.00
2023-02-06T20:04:04.632Z,810.00
2023-02-06T20:05:04.582Z,811.00
2023-02-06T20:06:04.566Z,811.00
2023-02-06T20:07:04.541Z,810.00
2023-02-06T20:08:04.533Z,811.00
2023-02-06T20:09:04.501Z,811.00
2023-02-06T20:10:04.472Z,808.00
2023-02-06T20:11:04.467Z,809.00
2023-02-06T20:12:04.413Z,809.00
2023-02-06T20:13:04.388Z,809.00
2023-02-06T20:14:04.356Z,805.00
2023-02-06T20:15:04.344Z,803.00
2023-02-06T20:16:04.312Z,805.00
2023-02-06T20:17:04.278Z,802.00
2023-02-06T20:18:04.253Z,799.00
2023-02-06T20:19:04.229Z,799.00
2023-02-06T20:20:04.219Z,798.00
2023-02-06T20:21:04.218Z,794.00
2023-02-06T20:22:04.166Z,791.00
2023-02-06T20:23:04.141Z,792.00
2023-02-06T20:24:04.103Z,792.00
2023-02-06T20:25:04.074Z,787.00
2023-02-06T20:26:04.079Z,788.00
2023-02-06T20:27:04.024Z,790.00
2023-02-06T20:28:04.033Z,788.00
2023-02-06T20:29:03.990Z,788.00
2023-02-06T20:30:03.985Z,787.00
2023-02-06T20:31:04.032Z,786.00
2023-02-06T20:32:03.937Z,784.00
2023-02-06T20:33:03.895Z,786.00
2023-02-06T20:34:03.877Z,785.00
2023-02-06T20:35:03.849Z,785.00
2023-02-06T20:36:03.826Z,785.00
2023-02-06T20:37:03.817Z,782.00
2023-02-06T20:38:03.772Z,780.00
2023-02-06T20:39:03.758Z,778.00
2023-02-06T20:40:03.736Z,778.00
2023-02-06T20:41:03.714Z,777.00
2023-02-06T20:42:03.699Z,776.00
2023-02-06T20:43:03.673Z,777.00
2023-02-06T20:44:03.664Z,777.00
2023-02-06T20:45:03.646Z,777.00
2023-02-06T20:46:03.649Z,772.00
2023-02-06T20:47:03.589Z,771.00
2023-02-06T20:48:03.558Z,773.00
2023-02-06T20:49:03.533Z,771.00
2023-02-06T20:50:03.507Z,768.00
2023-02-06T20:51:03.494Z,767.00
2023-02-06T20:52:03.499Z,766.00
2023-02-06T20:53:03.449Z,765.00
2023-02-06T20:54:03.427Z,765.00
2023-02-06T20:55:03.396Z,765.00
2023-02-06T20:56:03.363Z,765.00
2023-02-06T20:57:03.337Z,763.00
2023-02-06T20:58:03.313Z,763.00
2023-02-06T20:59:03.312Z,763.00
2023-02-06T21:00:03.265Z,763.00
2023-02-06T21:01:03.275Z,757.00
2023-02-06T21:02:03.278Z,749.00
2023-02-06T21:03:03.194Z,754.00
2023-02-06T21:04:03.157Z,754.00
2023-02-06T21:05:03.124Z,750.00
2023-02-06T21:06:03.101Z,752.00
2023-02-06T21:07:03.070Z,753.00
2023-02-06T21:08:03.026Z,754.00
2023-02-06T21:09:03.009Z,755.00
2023-02-06T21:10:02.973Z,754.00
2023-02-06T21:11:02.942Z,756.00
2023-02-06T21:12:02.924Z,754.00
2023-02-06T21:13:02.901Z,752.00
2023-02-06T21:14:02.876Z,750.00
2023-02-06T21:15:02.847Z,751.00
2023-02-06T21:16:02.860Z,750.00
2023-02-06T21:17:02.842Z,750.00
2023-02-06T21:18:02.782Z,747.00
2023-02-06T21:19:02.751Z,746.00
2023-02-06T21:20:02.748Z,745.00
2023-02-06T21:21:02.713Z,743.00
2023-02-06T21:22:02.690Z,744.00
2023-02-06T21:23:02.655Z,744.00
2023-02-06T21:24:02.631Z,742.00
2023-02-06T21:25:02.618Z,740.00
2023-02-06T21:26:02.592Z,738.00
2023-02-06T21:27:02.557Z,739.00
2023-02-06T21:28:02.552Z,740.00
2023-02-06T21:29:02.537Z,740.00
2023-02-06T21:30:02.475Z,741.00
2023-02-06T21:31:02.548Z,744.00
2023-02-06T21:32:13.300Z,741.00
2023-02-06T21:34:02.380Z,738.00
2023-02-06T21:35:02.484Z,735.00
2023-02-06T21:36:02.627Z,733.00
2023-02-06T21:37:04.176Z,733.00
2023-02-06T21:38:02.301Z,731.00
2023-02-06T21:39:02.249Z,729.00
2023-02-06T21:40:02.237Z,727.00
2023-02-06T21:41:02.204Z,726.00
2023-02-06T21:42:02.165Z,729.00
2023-02-06T21:43:02.145Z,728.00
2023-02-06T21:44:02.109Z,726.00
2023-02-06T21:45:02.088Z,725.00
2023-02-06T21:46:02.098Z,724.00
2023-02-06T21:47:02.025Z,724.00
2023-02-06T21:48:02.015Z,723.00
2023-02-06T21:49:01.981Z,722.00
2023-02-06T21:50:01.944Z,721.00
2023-02-06T21:51:01.924Z,720.00
2023-02-06T21:52:01.935Z,719.00
2023-02-06T21:53:01.886Z,719.00
2023-02-06T21:54:01.865Z,720.00
2023-02-06T21:55:01.861Z,718.00
2023-02-06T21:56:01.823Z,720.00
2023-02-06T21:57:01.790Z,719.00
2023-02-06T21:58:01.764Z,717.00
2023-02-06T21:59:01.738Z,716.00
2023-02-06T22:00:01.699Z,712.00
2023-02-06T22:01:01.698Z,710.00
2023-02-06T22:02:01.653Z,709.00
2023-02-06T22:03:01.695Z,713.00
2023-02-06T22:04:01.602Z,714.00
2023-02-06T22:05:01.597Z,715.00
2023-02-06T22:06:01.537Z,717.00
2023-02-06T22:07:01.529Z,718.00
2023-02-06T22:08:01.474Z,717.00
2023-02-06T22:09:01.488Z,716.00
2023-02-06T22:10:01.410Z,714.00
2023-02-06T22:11:01.388Z,711.00
2023-02-06T22:12:01.376Z,708.00
2023-02-06T22:13:01.343Z,706.00
2023-02-06T22:14:01.305Z,704.00
2023-02-06T22:15:01.279Z,701.00
2023-02-06T22:16:01.271Z,697.00
2023-02-06T22:17:01.241Z,697.00
2023-02-06T22:18:01.220Z,699.00
2023-02-06T22:19:01.226Z,700.00
2023-02-06T22:20:01.180Z,695.00
2023-02-06T22:21:01.152Z,692.00
2023-02-06T22:22:01.131Z,690.00
2023-02-06T22:23:01.119Z,691.00
2023-02-06T22:24:01.105Z,690.00
2023-02-06T22:25:01.149Z,689.00
2023-02-06T22:26:01.061Z,691.00
2023-02-06T22:27:01.052Z,691.00
2023-02-06T22:28:01.056Z,691.00
2023-02-06T22:29:01.006Z,690.00
2023-02-06T22:30:01.010Z,689.00
2023-02-06T22:31:01.005Z,689.00
2023-02-06T22:32:00.929Z,690.00
2023-02-06T22:33:00.924Z,688.00
2023-02-06T22:34:00.902Z,686.00
2023-02-06T22:35:00.876Z,685.00
2023-02-06T22:36:00.851Z,689.00
2023-02-06T22:37:00.833Z,688.00
2023-02-06T22:38:00.807Z,689.00
2023-02-06T22:39:00.806Z,689.00
2023-02-06T22:40:00.782Z,691.00
2023-02-06T22:41:00.758Z,691.00
2023-02-06T22:42:00.736Z,688.00
2023-02-06T22:43:00.717Z,688.00
2023-02-06T22:44:00.691Z,684.00
2023-02-06T22:45:00.673Z,684.00
2023-02-06T22:46:00.641Z,682.00
2023-02-06T22:47:00.630Z,679.00
2023-02-06T22:48:00.598Z,677.00
2023-02-06T22:49:00.587Z,677.00
2023-02-06T22:50:00.550Z,678.00
2023-02-06T22:51:00.539Z,677.00
2023-02-06T22:52:00.523Z,678.00
2023-02-06T22:53:00.487Z,678.00
2023-02-06T22:54:00.499Z,677.00
2023-02-06T22:55:00.441Z,678.00
2023-02-06T22:56:00.410Z,678.00
2023-02-06T22:57:00.395Z,676.00
2023-02-06T22:58:00.357Z,673.00
2023-02-06T22:59:00.343Z,669.00
2023-02-06T23:00:00.315Z,672.00
2023-02-06T23:01:00.308Z,674.00
2023-02-06T23:02:00.363Z,675.00
2023-02-06T23:03:00.255Z,673.00
2023-02-06T23:04:00.238Z,671.00
2023-02-06T23:05:00.227Z,669.00
2023-02-06T23:06:00.189Z,670.00
2023-02-06T23:07:00.186Z,671.00
2023-02-06T23:08:00.157Z,672.00
2023-02-06T23:09:00.142Z,668.00
2023-02-06T23:10:00.144Z,668.00
2023-02-06T23:11:00.107Z,666.00
2023-02-06T23:12:00.114Z,668.00
2023-02-06T23:13:00.094Z,668.00
2023-02-06T23:14:00.047Z,668.00
2023-02-06T23:15:00.036Z,665.00
2023-02-06T23:16:00.024Z,667.00
2023-02-06T23:17:00.002Z,668.00
2023-02-06T23:17:59.972Z,667.00
2023-02-06T23:18:59.970Z,665.00
2023-02-06T23:19:59.914Z,661.00
2023-02-06T23:20:59.896Z,662.00
2023-02-06T23:21:59.878Z,662.00
2023-02-06T23:22:59.840Z,658.00
2023-02-06T23:23:59.819Z,654.00
2023-02-06T23:24:59.816Z,651.00
2023-02-06T23:25:59.764Z,647.00
2023-02-06T23:26:59.749Z,643.00
2023-02-06T23:27:59.759Z,641.00
2023-02-06T23:28:59.722Z,641.00
2023-02-06T23:29:59.703Z,645.00
2023-02-06T23:30:59.693Z,647.00
2023-02-06T23:31:59.649Z,646.00
2023-02-06T23:32:59.634Z,646.00
2023-02-06T23:33:59.604Z,644.00
2023-02-06T23:34:59.596Z,644.00
2023-02-06T23:35:59.564Z,643.00
2023-02-06T23:36:59.556Z,644.00
2023-02-06T23:37:59.522Z,645.00
2023-02-06T23:38:59.495Z,644.00
2023-02-06T23:39:59.494Z,642.00
2023-02-06T23:40:59.456Z,640.00
2023-02-06T23:41:59.433Z,641.00
2023-02-06T23:42:59.408Z,639.00
2023-02-06T23:43:59.396Z,640.00
2023-02-06T23:44:59.376Z,637.00
2023-02-06T23:45:59.427Z,636.00
2023-02-06T23:46:59.331Z,637.00
2023-02-06T23:47:59.313Z,634.00
2023-02-06T23:48:59.300Z,632.00
2023-02-06T23:49:59.274Z,629.00
2023-02-06T23:50:59.268Z,628.00
2023-02-06T23:51:59.244Z,628.00
2023-02-06T23:52:59.242Z,629.00
2023-02-06T23:53:59.210Z,631.00
2023-02-06T23:54:59.207Z,632.00
2023-02-06T23:55:59.176Z,630.00
2023-02-06T23:56:59.151Z,631.00
2023-02-06T23:57:59.136Z,632.00
2023-02-06T23:58:59.121Z,632.00
2023-02-06T23:59:59.109Z,634.00
